createdAt,value
2023-04-15T00:02:00.237Z,66.77
2023-04-15T00:04:27.796Z,67.14
2023-04-15T00:06:54.893Z,66.58
2023-04-15T00:09:21.863Z,66.88
2023-04-15T00:11:48.513Z,66.62
2023-04-15T00:14:15.583Z,66.73
2023-04-15T00:16:42.158Z,67.47
2023-04-15T00:19:08.810Z,68.07
2023-04-15T00:21:35.824Z,68.09
2023-04-15T00:24:02.460Z,68.90
2023-04-15T00:26:29.092Z,69.06
2023-04-15T00:28:55.662Z,69.28
2023-04-15T00:31:23.210Z,69.00
2023-04-15T00:33:49.953Z,69.15
2023-04-15T00:36:16.484Z,69.06
2023-04-15T00:38:42.981Z,69.05
2023-04-15T00:41:10.809Z,69.17
2023-04-15T00:43:37.418Z,68.46
2023-04-15T00:46:06.120Z,68.83
2023-04-15T00:48:32.836Z,68.44
2023-04-15T00:50:59.726Z,68.97
2023-04-15T00:53:26.492Z,69.14
2023-04-15T00:55:53.999Z,68.69
2023-04-15T00:58:20.608Z,67.76
2023-04-15T01:00:47.953Z,68.47
2023-04-15T01:03:15.632Z,68.43
2023-04-15T01:05:42.388Z,68.80
2023-04-15T01:08:09.792Z,69.44
2023-04-15T01:10:36.712Z,68.05
2023-04-15T01:13:04.021Z,67.53
2023-04-15T01:15:31.509Z,66.49
2023-04-15T01:17:59.623Z,68.11
2023-04-15T01:20:26.332Z,67.24
2023-04-15T01:22:54.974Z,67.00
2023-04-15T01:25:33.007Z,66.21
2023-04-15T01:27:59.932Z,66.53
2023-04-15T01:30:29.942Z,66.84
2023-04-15T01:32:56.684Z,66.87
2023-04-15T01:35:24.018Z,68.45
2023-04-15T01:37:51.291Z,69.04
2023-04-15T01:40:17.832Z,68.47
2023-04-15T01:42:44.566Z,69.14
2023-04-15T01:45:11.484Z,70.82
2023-04-15T01:47:38.105Z,70.13
2023-04-15T01:50:05.158Z,70.54
2023-04-15T01:52:32.249Z,70.91
2023-04-15T01:54:58.863Z,71.09
2023-04-15T01:57:25.383Z,71.32
2023-04-15T01:59:52.095Z,70.88
2023-04-15T02:02:18.717Z,70.25
2023-04-15T02:04:45.507Z,69.82
2023-04-15T02:07:12.205Z,69.87
2023-04-15T02:09:39.248Z,70.02
2023-04-15T02:12:06.205Z,69.64
2023-04-15T02:14:32.698Z,69.90
2023-04-15T02:17:07.076Z,70.02
2023-04-15T02:19:34.525Z,70.07
2023-04-15T02:22:02.185Z,69.74
2023-04-15T02:24:30.601Z,69.95
2023-04-15T02:26:57.404Z,69.39
2023-04-15T02:29:24.058Z,69.11
2023-04-15T02:31:51.164Z,69.53
2023-04-15T02:34:17.903Z,69.75
2023-04-15T02:36:44.535Z,70.63
2023-04-15T02:39:12.813Z,70.78
2023-04-15T02:41:39.676Z,70.83
2023-04-15T02:44:07.311Z,70.80
2023-04-15T02:46:33.902Z,70.80
2023-04-15T02:49:00.662Z,71.86
2023-04-15T02:51:33.909Z,71.51
2023-04-15T02:54:01.598Z,72.19
2023-04-15T02:56:28.144Z,71.12
2023-04-15T02:58:56.408Z,71.48
2023-04-15T03:01:23.043Z,72.27
2023-04-15T03:04:49.336Z,73.16
2023-04-15T03:07:15.976Z,73.24
2023-04-15T03:09:42.848Z,73.56
2023-04-15T03:12:09.401Z,73.23
2023-04-15T03:14:36.012Z,72.51
2023-04-15T03:17:02.658Z,75.35
2023-04-15T03:19:29.195Z,76.73
2023-04-15T03:21:55.998Z,77.40
2023-04-15T03:24:22.681Z,78.17
2023-04-15T03:26:49.240Z,79.06
2023-04-15T03:29:15.876Z,80.00
2023-04-15T03:31:42.550Z,78.95
2023-04-15T03:34:09.057Z,79.46
2023-04-15T03:36:35.652Z,79.45
2023-04-15T03:39:02.515Z,79.57
2023-04-15T03:41:29.247Z,79.24
2023-04-15T03:43:55.840Z,79.04
2023-04-15T03:46:22.425Z,79.74
2023-04-15T03:48:49.051Z,79.96
2023-04-15T03:51:15.708Z,80.78
2023-04-15T03:53:42.409Z,78.60
2023-04-15T03:56:08.960Z,79.97
2023-04-15T03:58:35.904Z,81.80
2023-04-15T04:01:02.540Z,81.64
2023-04-15T04:03:29.223Z,81.31
2023-04-15T04:05:56.338Z,80.70
2023-04-15T04:08:22.885Z,81.64
2023-04-15T04:10:49.526Z,81.18
2023-04-15T04:13:16.424Z,81.25
2023-04-15T04:15:42.962Z,80.56
2023-04-15T04:18:09.712Z,82.98
2023-04-15T04:20:36.422Z,82.86
2023-04-15T04:23:03.060Z,82.60
2023-04-15T04:25:29.776Z,83.61
2023-04-15T04:27:56.455Z,84.30
2023-04-15T04:30:23.233Z,84.53
2023-04-15T04:32:51.124Z,83.59
2023-04-15T04:35:17.722Z,82.57
2023-04-15T04:37:44.257Z,83.11
2023-04-15T04:40:11.400Z,82.85
2023-04-15T04:42:39.844Z,83.15
2023-04-15T04:45:07.459Z,83.41
2023-04-15T04:47:34.082Z,83.52
2023-04-15T04:50:00.877Z,84.33
2023-04-15T04:52:27.484Z,83.40
2023-04-15T04:54:54.172Z,84.30
2023-04-15T04:57:20.879Z,84.02
2023-04-15T04:59:47.611Z,84.01
2023-04-15T05:02:14.261Z,83.95
2023-04-15T05:04:41.870Z,82.94
2023-04-15T05:07:08.575Z,83.46
2023-04-15T05:09:36.707Z,82.41
2023-04-15T05:12:06.306Z,82.75
2023-04-15T05:14:33.314Z,81.83
2023-04-15T05:16:59.866Z,83.33
2023-04-15T05:19:26.494Z,83.06
2023-04-15T05:21:53.187Z,84.23
2023-04-15T05:24:19.808Z,83.36
2023-04-15T05:26:46.450Z,83.75
2023-04-15T05:29:13.060Z,82.43
2023-04-15T05:31:39.690Z,83.32
2023-04-15T05:34:07.197Z,83.76
2023-04-15T05:36:33.727Z,85.08
2023-04-15T05:39:00.976Z,85.58
2023-04-15T05:41:27.831Z,84.98
2023-04-15T05:43:54.382Z,85.13
2023-04-15T05:46:21.279Z,85.17
2023-04-15T05:48:47.869Z,85.15
2023-04-15T05:51:14.750Z,84.68
2023-04-15T05:53:41.885Z,83.71
2023-04-15T05:56:08.505Z,83.17
2023-04-15T05:58:35.071Z,82.24
2023-04-15T06:01:02.548Z,81.51
2023-04-15T06:03:29.654Z,79.81
2023-04-15T06:05:56.508Z,82.04
2023-04-15T06:08:22.987Z,82.01
2023-04-15T06:10:49.525Z,80.49
2023-04-15T06:13:17.114Z,81.23
2023-04-15T06:15:43.922Z,82.29
2023-04-15T06:18:11.696Z,82.45
2023-04-15T06:20:38.728Z,82.94
2023-04-15T06:23:05.397Z,82.43
2023-04-15T06:25:31.925Z,82.07
2023-04-15T06:27:58.436Z,81.69
2023-04-15T06:30:24.940Z,81.46
2023-04-15T06:32:51.767Z,80.62
2023-04-15T06:35:18.492Z,81.15
2023-04-15T06:37:45.042Z,79.68
2023-04-15T06:40:12.007Z,77.45
2023-04-15T06:42:38.542Z,78.24
2023-04-15T06:45:05.706Z,79.56
2023-04-15T06:47:32.423Z,81.06
2023-04-15T06:49:59.066Z,80.62
2023-04-15T06:52:25.593Z,78.20
2023-04-15T06:54:52.134Z,79.19
2023-04-15T06:57:18.679Z,77.79
2023-04-15T06:59:45.466Z,78.32
2023-04-15T07:02:14.488Z,78.81
2023-04-15T07:04:41.146Z,79.78
2023-04-15T07:07:08.117Z,78.69
2023-04-15T07:09:34.702Z,75.69
2023-04-15T07:12:01.255Z,75.46
2023-04-15T07:14:28.010Z,76.89
2023-04-15T07:16:54.726Z,78.95
2023-04-15T07:19:21.925Z,79.87
2023-04-15T07:21:48.496Z,77.83
2023-04-15T07:24:18.215Z,77.79
2023-04-15T07:26:45.195Z,77.69
2023-04-15T07:29:12.039Z,76.93
2023-04-15T07:31:40.074Z,77.67
2023-04-15T07:34:07.256Z,76.85
2023-04-15T07:36:33.825Z,76.36
2023-04-15T07:39:02.335Z,74.54
2023-04-15T07:41:30.640Z,72.03
2023-04-15T07:43:57.294Z,72.69
2023-04-15T07:46:27.514Z,73.72
2023-04-15T07:48:54.493Z,73.30
2023-04-15T07:51:21.357Z,73.44
2023-04-15T07:53:50.464Z,71.71
2023-04-15T07:56:17.184Z,70.29
2023-04-15T07:58:43.709Z,72.45
2023-04-15T08:01:10.287Z,72.24
2023-04-15T08:03:37.209Z,73.93
2023-04-15T08:06:04.047Z,75.38
2023-04-15T08:08:35.437Z,74.71
2023-04-15T08:11:02.200Z,74.24
2023-04-15T08:13:28.858Z,75.17
2023-04-15T08:16:14.345Z,73.20
2023-04-15T08:18:42.248Z,73.89
2023-04-15T08:21:09.442Z,75.74
2023-04-15T08:23:36.252Z,72.18
2023-04-15T08:26:02.886Z,70.86
2023-04-15T08:28:29.743Z,70.55
2023-04-15T08:30:56.691Z,70.81
2023-04-15T08:33:25.906Z,71.32
2023-04-15T08:35:52.939Z,70.38
2023-04-15T08:38:19.579Z,70.78
2023-04-15T08:40:46.735Z,69.50
2023-04-15T08:43:22.692Z,72.17
2023-04-15T08:45:52.654Z,74.05
2023-04-15T08:48:19.657Z,73.96
2023-04-15T08:50:48.036Z,73.54
2023-04-15T08:53:15.632Z,76.16
2023-04-15T08:55:47.672Z,76.03
2023-04-15T08:58:19.153Z,75.51
2023-04-15T09:00:46.009Z,71.57
2023-04-15T09:03:12.808Z,73.32
2023-04-15T09:05:39.396Z,69.13
2023-04-15T09:08:06.040Z,65.59
2023-04-15T09:10:38.616Z,65.84
2023-04-15T09:13:05.241Z,65.68
2023-04-15T09:15:33.215Z,69.55
2023-04-15T09:17:59.744Z,67.24
2023-04-15T09:20:26.457Z,70.74
2023-04-15T09:23:07.604Z,71.09
2023-04-15T09:25:35.047Z,69.56
2023-04-15T09:28:02.392Z,72.83
2023-04-15T09:30:29.652Z,72.66
2023-04-15T09:33:01.719Z,75.04
2023-04-15T09:35:28.976Z,72.57
2023-04-15T09:38:04.299Z,74.98
2023-04-15T09:40:36.416Z,72.55
2023-04-15T09:43:15.166Z,69.21
2023-04-15T09:45:52.498Z,72.40
2023-04-15T09:48:29.070Z,72.30
2023-04-15T09:50:58.881Z,73.73
2023-04-15T09:53:26.671Z,71.74
2023-04-15T09:55:55.919Z,72.02
2023-04-15T09:58:24.649Z,70.73
2023-04-15T10:00:52.911Z,72.54
2023-04-15T10:03:22.076Z,69.38
2023-04-15T10:05:50.876Z,71.93
2023-04-15T10:08:22.469Z,74.46
2023-04-15T10:10:49.675Z,69.65
2023-04-15T10:13:19.668Z,72.86
2023-04-15T10:15:56.885Z,74.25
2023-04-15T10:18:26.515Z,74.94
2023-04-15T10:20:54.036Z,76.49
2023-04-15T10:23:22.760Z,76.22
2023-04-15T10:25:51.029Z,75.94
2023-04-15T10:28:17.872Z,78.50
2023-04-15T10:30:44.770Z,77.02
2023-04-15T10:33:11.764Z,78.12
2023-04-15T10:35:39.735Z,75.30
2023-04-15T10:38:40.995Z,71.96
2023-04-15T10:41:34.621Z,75.66
2023-04-15T10:44:07.850Z,74.04
2023-04-15T10:47:04.548Z,74.30
2023-04-15T10:49:31.260Z,75.65
2023-04-15T10:52:00.004Z,73.68
2023-04-15T10:54:26.553Z,73.10
2023-04-15T10:57:09.828Z,75.71
2023-04-15T10:59:58.324Z,74.63
2023-04-15T11:02:44.155Z,72.84
2023-04-15T11:05:12.566Z,71.82
2023-04-15T11:07:53.280Z,69.96
2023-04-15T11:10:26.335Z,70.89
2023-04-15T11:13:04.743Z,67.75
2023-04-15T11:15:43.063Z,68.37
2023-04-15T11:18:09.607Z,66.83
2023-04-15T11:20:37.352Z,66.03
2023-04-15T11:23:08.169Z,64.95
2023-04-15T11:25:44.432Z,65.63
2023-04-15T11:28:12.541Z,64.76
2023-04-15T11:30:40.026Z,67.59
2023-04-15T11:33:09.194Z,66.38
2023-04-15T11:35:36.284Z,65.59
2023-04-15T11:38:16.811Z,64.92
2023-04-15T11:40:46.764Z,62.88
2023-04-15T11:43:20.538Z,60.00
2023-04-15T11:45:51.515Z,62.79
2023-04-15T11:48:22.162Z,63.16
2023-04-15T11:50:56.587Z,62.68
2023-04-15T11:53:24.180Z,64.70
2023-04-15T11:55:57.549Z,63.19
2023-04-15T11:58:28.474Z,63.44
2023-04-15T12:00:57.972Z,59.76
2023-04-15T12:03:42.507Z,57.50
2023-04-15T12:06:24.746Z,55.82
2023-04-15T12:08:53.285Z,59.49
2023-04-15T12:11:26.442Z,56.48
2023-04-15T12:13:58.718Z,59.63
2023-04-15T12:16:35.250Z,60.00
2023-04-15T12:19:25.958Z,63.65
2023-04-15T12:22:09.442Z,63.13
2023-04-15T12:24:37.891Z,62.44
2023-04-15T12:27:06.945Z,60.67
2023-04-15T12:29:35.509Z,63.07
2023-04-15T12:32:17.988Z,64.31
2023-04-15T12:34:50.585Z,66.90
2023-04-15T12:37:17.723Z,64.46
2023-04-15T12:39:46.005Z,64.57
2023-04-15T12:42:17.749Z,62.45
2023-04-15T12:44:45.673Z,66.53
2023-04-15T12:47:13.176Z,62.90
2023-04-15T12:49:41.017Z,63.66
2023-04-15T12:52:07.877Z,58.99
2023-04-15T12:54:34.754Z,59.99
2023-04-15T12:57:07.298Z,62.56
2023-04-15T12:59:34.776Z,59.87
2023-04-15T13:02:02.863Z,60.55
2023-04-15T13:04:31.091Z,62.39
2023-04-15T13:06:58.160Z,61.05
2023-04-15T13:09:28.572Z,61.56
2023-04-15T13:11:56.204Z,62.66
2023-04-15T13:14:22.708Z,62.20
2023-04-15T13:16:49.289Z,62.16
2023-04-15T13:19:15.909Z,61.97
2023-04-15T13:21:42.890Z,62.02
2023-04-15T13:24:09.771Z,62.49
2023-04-15T13:26:36.423Z,61.53
2023-04-15T13:29:02.964Z,61.85
2023-04-15T13:31:29.611Z,61.97
2023-04-15T13:33:57.443Z,61.03
2023-04-15T13:36:24.317Z,63.10
2023-04-15T13:38:51.646Z,64.50
2023-04-15T13:41:18.641Z,63.81
2023-04-15T13:43:45.173Z,62.03
2023-04-15T13:46:12.047Z,63.79
2023-04-15T13:48:38.772Z,61.94
2023-04-15T13:51:05.708Z,65.40
2023-04-15T13:53:38.319Z,63.57
2023-04-15T13:56:07.506Z,61.36
2023-04-15T13:58:34.317Z,61.91
2023-04-15T14:01:02.552Z,62.23
2023-04-15T14:03:30.856Z,60.79
2023-04-15T14:05:58.604Z,58.95
2023-04-15T14:08:25.751Z,64.18
2023-04-15T14:10:52.405Z,63.20
2023-04-15T14:13:19.743Z,64.29
2023-04-15T14:15:47.494Z,62.91
2023-04-15T14:18:14.080Z,63.04
2023-04-15T14:20:40.663Z,61.54
2023-04-15T14:23:07.482Z,62.96
2023-04-15T14:25:34.376Z,62.22
2023-04-15T14:28:02.415Z,62.37
2023-04-15T14:30:28.976Z,60.31
2023-04-15T14:32:56.158Z,60.58
2023-04-15T14:35:24.553Z,62.19
2023-04-15T14:37:51.269Z,61.80
2023-04-15T14:40:17.905Z,61.16
2023-04-15T14:42:45.032Z,59.30
2023-04-15T14:45:12.073Z,60.87
2023-04-15T14:47:38.704Z,60.18
2023-04-15T14:50:05.959Z,60.74
2023-04-15T14:52:38.604Z,60.54
2023-04-15T14:55:12.964Z,61.83
2023-04-15T14:57:41.267Z,59.46
2023-04-15T15:00:10.585Z,64.07
2023-04-15T15:02:40.216Z,63.19
2023-04-15T15:05:08.302Z,63.05
2023-04-15T15:07:37.400Z,61.53
2023-04-15T15:10:05.079Z,63.31
2023-04-15T15:12:32.950Z,64.54
2023-04-15T15:15:00.537Z,64.82
2023-04-15T15:17:28.259Z,63.99
2023-04-15T15:19:55.235Z,63.25
2023-04-15T15:22:21.868Z,63.32
2023-04-15T15:24:48.511Z,61.93
2023-04-15T15:27:15.140Z,63.03
2023-04-15T15:29:41.777Z,63.18
2023-04-15T15:32:08.327Z,62.33
2023-04-15T15:34:38.299Z,63.18
2023-04-15T15:37:05.507Z,62.50
2023-04-15T15:39:32.076Z,61.90
2023-04-15T15:41:58.601Z,62.37
2023-04-15T15:44:25.290Z,63.26
2023-04-15T15:46:51.948Z,62.95
2023-04-15T15:49:19.944Z,62.13
2023-04-15T15:51:46.752Z,62.04
2023-04-15T15:54:13.326Z,60.69
2023-04-15T15:56:39.906Z,58.43
2023-04-15T15:59:06.799Z,58.66
2023-04-15T16:01:33.737Z,56.90
2023-04-15T16:04:01.072Z,57.24
2023-04-15T16:06:28.295Z,55.15
2023-04-15T16:08:55.078Z,51.46
2023-04-15T16:11:21.627Z,47.20
2023-04-15T16:13:48.158Z,48.61
2023-04-15T16:16:24.463Z,48.48
2023-04-15T16:18:51.086Z,45.19
2023-04-15T16:21:17.824Z,40.18
2023-04-15T16:23:44.496Z,39.35
2023-04-15T16:26:11.049Z,37.96
2023-04-15T16:28:45.311Z,37.79
2023-04-15T16:31:12.319Z,35.84
2023-04-15T16:33:39.101Z,38.23
2023-04-15T16:36:06.311Z,43.61
2023-04-15T16:38:32.874Z,43.00
2023-04-15T16:41:08.619Z,43.67
2023-04-15T16:43:35.215Z,48.04
2023-04-15T16:46:01.857Z,51.41
2023-04-15T16:48:29.669Z,53.45
2023-04-15T16:50:57.177Z,56.82
2023-04-15T16:53:24.065Z,55.76
2023-04-15T16:55:51.182Z,55.92
2023-04-15T16:58:17.813Z,59.47
2023-04-15T17:00:44.677Z,59.30
2023-04-15T17:03:11.549Z,60.63
2023-04-15T17:05:38.330Z,60.51
2023-04-15T17:08:05.947Z,62.55
2023-04-15T17:10:32.552Z,62.56
2023-04-15T17:12:59.286Z,63.05
2023-04-15T17:15:27.261Z,63.57
2023-04-15T17:17:54.391Z,64.02
2023-04-15T17:20:21.872Z,63.98
2023-04-15T17:22:49.271Z,65.95
2023-04-15T17:25:16.003Z,65.32
2023-04-15T17:27:42.720Z,65.42
2023-04-15T17:30:09.691Z,64.83
2023-04-15T17:32:36.700Z,65.14
2023-04-15T17:35:11.179Z,67.33
2023-04-15T17:37:38.012Z,68.17
2023-04-15T17:40:08.015Z,68.10
2023-04-15T17:42:35.305Z,68.62
2023-04-15T17:45:01.872Z,70.38
2023-04-15T17:47:29.943Z,69.44
2023-04-15T17:49:58.930Z,70.58
2023-04-15T17:52:25.560Z,70.04
2023-04-15T17:54:52.125Z,69.50
2023-04-15T17:57:18.838Z,71.41
2023-04-15T17:59:47.518Z,71.34
2023-04-15T18:02:14.963Z,72.41
2023-04-15T18:04:41.830Z,72.91
2023-04-15T18:07:08.778Z,74.30
2023-04-15T18:09:36.130Z,74.65
2023-04-15T18:12:04.675Z,75.39
2023-04-15T18:14:34.669Z,75.70
2023-04-15T18:17:05.163Z,76.83
2023-04-15T18:19:32.099Z,76.60
2023-04-15T18:22:00.284Z,77.05
2023-04-15T18:24:27.523Z,77.18
2023-04-15T18:26:54.078Z,76.64
2023-04-15T18:29:20.743Z,75.67
2023-04-15T18:31:47.501Z,76.46
2023-04-15T18:34:14.067Z,76.73
2023-04-15T18:36:40.771Z,76.99
2023-04-15T18:39:07.566Z,76.63
2023-04-15T18:41:34.486Z,76.46
2023-04-15T18:44:01.124Z,75.45
2023-04-15T18:46:28.275Z,76.18
2023-04-15T18:48:54.979Z,78.52
2023-04-15T18:51:21.648Z,78.12
2023-04-15T18:53:48.322Z,79.29
2023-04-15T18:56:14.978Z,79.29
2023-04-15T18:59:22.935Z,79.93
2023-04-15T19:01:28.915Z,78.34
2023-04-15T19:03:55.537Z,78.13
2023-04-15T19:06:22.433Z,77.59
2023-04-15T19:08:49.152Z,77.54
2023-04-15T19:11:15.862Z,78.48
2023-04-15T19:13:42.425Z,78.51
2023-04-15T19:16:09.042Z,79.09
2023-04-15T19:18:35.691Z,77.82
2023-04-15T19:21:03.113Z,76.86
2023-04-15T19:23:31.452Z,76.86
2023-04-15T19:25:58.881Z,77.48
2023-04-15T19:28:28.180Z,76.67
2023-04-15T19:30:55.158Z,77.47
2023-04-15T19:33:21.815Z,79.09
2023-04-15T19:35:49.925Z,78.98
2023-04-15T19:38:17.085Z,79.28
2023-04-15T19:40:43.886Z,78.51
2023-04-15T19:43:10.443Z,78.20
2023-04-15T19:45:37.200Z,78.72
2023-04-15T19:48:06.045Z,78.15
2023-04-15T19:50:32.840Z,78.88
2023-04-15T19:52:59.427Z,78.58
2023-04-15T19:55:26.090Z,78.45
2023-04-15T19:57:52.604Z,78.10
2023-04-15T20:00:19.141Z,77.98
2023-04-15T20:02:45.758Z,78.64
2023-04-15T20:05:13.833Z,78.02
2023-04-15T20:07:42.613Z,77.70
2023-04-15T20:10:14.008Z,77.53
2023-04-15T20:12:50.242Z,78.38
2023-04-15T20:15:19.199Z,78.64
2023-04-15T20:17:45.786Z,78.53
2023-04-15T20:20:12.483Z,79.00
2023-04-15T20:22:39.031Z,77.70
2023-04-15T20:25:06.087Z,75.59
2023-04-15T20:27:32.619Z,74.76
2023-04-15T20:29:59.278Z,74.96
2023-04-15T20:32:26.986Z,75.37
2023-04-15T20:34:53.825Z,75.02
2023-04-15T20:37:20.558Z,75.90
2023-04-15T20:39:47.202Z,77.00
2023-04-15T20:42:13.745Z,78.30
2023-04-15T20:44:40.447Z,78.20
2023-04-15T20:47:07.740Z,76.96
2023-04-15T20:49:38.560Z,78.92
2023-04-15T20:52:06.512Z,80.03
2023-04-15T20:54:33.244Z,81.08
2023-04-15T20:57:00.030Z,81.12
2023-04-15T20:59:27.008Z,80.69
2023-04-15T21:01:54.168Z,80.40
2023-04-15T21:04:22.098Z,80.94
2023-04-15T21:06:48.734Z,79.92
2023-04-15T21:09:15.289Z,77.67
2023-04-15T21:11:59.789Z,78.46
2023-04-15T21:14:28.070Z,79.88
2023-04-15T21:16:54.714Z,80.81
2023-04-15T21:19:21.283Z,80.96
2023-04-15T21:21:47.833Z,81.67
2023-04-15T21:24:14.396Z,82.04
2023-04-15T21:26:41.082Z,81.76
2023-04-15T21:29:10.393Z,81.34
2023-04-15T21:31:37.859Z,81.46
2023-04-15T21:34:04.517Z,81.79
2023-04-15T21:36:31.761Z,80.93
2023-04-15T21:38:58.355Z,81.37
2023-04-15T21:41:25.188Z,82.03
2023-04-15T21:43:51.812Z,81.03
2023-04-15T21:46:23.469Z,82.20
2023-04-15T21:48:53.585Z,81.39
2023-04-15T21:51:20.388Z,81.15
2023-04-15T21:53:46.998Z,80.62
2023-04-15T21:56:13.528Z,81.38
2023-04-15T21:58:40.286Z,81.23
2023-04-15T22:01:06.878Z,80.92
2023-04-15T22:03:35.059Z,78.62
2023-04-15T22:06:04.918Z,78.18
2023-04-15T22:08:41.348Z,79.91
2023-04-15T22:11:20.906Z,79.09
2023-04-15T22:13:47.514Z,77.42
2023-04-15T22:16:14.080Z,78.62
2023-04-15T22:18:40.609Z,81.09
2023-04-15T22:21:07.956Z,81.41
2023-04-15T22:23:34.497Z,81.08
2023-04-15T22:26:01.043Z,80.37
2023-04-15T22:28:27.559Z,79.98
2023-04-15T22:30:54.707Z,79.29
2023-04-15T22:33:21.365Z,78.95
2023-04-15T22:35:47.972Z,80.99
2023-04-15T22:38:14.762Z,79.80
2023-04-15T22:40:41.554Z,79.39
2023-04-15T22:43:08.155Z,80.40
2023-04-15T22:45:34.690Z,80.48
2023-04-15T22:48:02.550Z,80.67
2023-04-15T22:50:29.207Z,81.01
2023-04-15T22:52:55.780Z,81.29
2023-04-15T22:55:22.537Z,81.82
2023-04-15T22:57:49.042Z,81.31
2023-04-15T23:00:15.614Z,80.54
2023-04-15T23:02:42.270Z,81.37
2023-04-15T23:05:12.749Z,80.95
2023-04-15T23:07:39.818Z,81.35
2023-04-15T23:10:08.114Z,81.10
2023-04-15T23:12:34.686Z,81.05
2023-04-15T23:15:01.207Z,80.48
2023-04-15T23:17:27.795Z,80.08
2023-04-15T23:19:54.398Z,80.03
2023-04-15T23:22:21.046Z,79.97
2023-04-15T23:24:47.665Z,80.25
2023-04-15T23:27:14.303Z,80.44
2023-04-15T23:29:40.894Z,79.60
2023-04-15T23:32:07.484Z,80.32
2023-04-15T23:34:34.067Z,80.54
2023-04-15T23:37:00.979Z,80.80
2023-04-15T23:39:27.668Z,80.78
2023-04-15T23:41:54.388Z,80.49
2023-04-15T23:44:20.926Z,80.47
2023-04-15T23:46:47.634Z,80.31
2023-04-15T23:49:14.358Z,80.89
2023-04-15T23:51:41.269Z,80.89
2023-04-15T23:54:07.809Z,80.91
2023-04-15T23:56:34.434Z,79.67
2023-04-15T23:59:01.015Z,79.50
